EGTK METAR and TAF | Updated Today

EGTK METAR

Oxford (Kidlington) Airport

Observation time: 19 min. ago

EGTK 061920Z 21011KT 9999 SCT037 BKN042 15/11 Q1025

Need help? Read our tutorial on how to read METARs or read the parsed version below.

Oxford (Kidlington) Airport (EGTK) METAR

  • Weather conditions on Thu, 06 Oct 2022 19:20:00 +0000 (19 min. ago):
  • Present conditions: Dry
  • Clouds: Scattered at 1128 meters; broken sky at 1280 meters
  • Visibility: Greater than 10 km
  • Wind: 210 degrees at 11 knots
  • Temperature: 15 celsius
  • Dew point: 11 celsius
  • Pressure: 1025 millibars
  • Remarks: None


Useful to know...

EGTK TAF

Oxford (Kidlington) Airport

TAF EGTK 061655Z 0618/0622 21009KT 9999 SCT030 PROB30 TEMPO 0618/0622 21015G25KT
Observation time: 2:44 hr. ago
Need help? Read our tutorial on how to read TAFs or read the parsed version below.

Parsed version of TAF for Oxford (Kidlington) Airport (EGTK)

  • From 06 October at 18:00 UTC, to day 06 of the month at 22:00 UTC
  • Clouds: Scattered at 914 meters
  • Visibility: Greater than 10 km
  • Wind: 210 degrees at 9
  • Expected to arise temporarily, from 06 October at 18:00 UTC, to day 06 of the month at 22:00 UTC
    Probability of 30%
  • Wind: 210 degrees at 15